createdAt,value
2022-12-31T00:01:41.321Z,87.10
2022-12-31T00:06:42.973Z,86.99
2022-12-31T00:11:44.822Z,86.96
2022-12-31T00:16:46.512Z,87.00
2022-12-31T00:21:48.227Z,86.53
2022-12-31T00:26:49.930Z,86.00
2022-12-31T00:31:51.636Z,85.62
2022-12-31T00:36:53.451Z,85.34
2022-12-31T00:41:55.183Z,84.67
2022-12-31T00:46:56.930Z,84.52
2022-12-31T00:51:58.724Z,84.59
2022-12-31T00:57:00.470Z,84.17
2022-12-31T01:02:02.189Z,84.17
2022-12-31T01:07:03.899Z,84.25
2022-12-31T01:12:05.821Z,84.04
2022-12-31T01:17:07.995Z,84.39
2022-12-31T01:22:09.640Z,84.71
2022-12-31T01:27:11.277Z,84.71
2022-12-31T01:32:12.903Z,84.66
2022-12-31T01:37:14.607Z,84.37
2022-12-31T01:42:16.376Z,84.04
2022-12-31T01:47:24.733Z,83.87
2022-12-31T01:52:48.124Z,83.54
2022-12-31T01:57:53.260Z,83.18
2022-12-31T02:02:55.090Z,83.05
2022-12-31T02:07:57.443Z,82.63
2022-12-31T02:12:59.810Z,82.39
2022-12-31T02:18:19.893Z,82.05
2022-12-31T02:23:54.763Z,82.06
2022-12-31T02:29:16.480Z,81.30
2022-12-31T02:34:26.865Z,81.30
2022-12-31T02:39:29.351Z,81.05
2022-12-31T02:44:35.810Z,80.58
2022-12-31T02:49:46.610Z,80.57
2022-12-31T02:55:03.071Z,80.29
2022-12-31T03:00:28.666Z,80.22
2022-12-31T03:05:34.370Z,80.19
2022-12-31T03:10:36.738Z,79.94
2022-12-31T03:15:38.957Z,79.78
2022-12-31T03:21:09.589Z,79.76
2022-12-31T03:26:12.409Z,79.78
2022-12-31T03:31:16.293Z,79.34
2022-12-31T03:36:17.962Z,79.16
2022-12-31T03:41:19.630Z,78.93
2022-12-31T03:46:21.578Z,78.51
2022-12-31T03:51:23.651Z,78.43
2022-12-31T03:56:25.315Z,78.30
2022-12-31T04:01:27.594Z,78.21
2022-12-31T04:06:29.450Z,78.27
2022-12-31T04:11:32.102Z,78.37
2022-12-31T04:16:33.849Z,78.33
2022-12-31T04:21:35.996Z,78.23
2022-12-31T04:26:38.994Z,77.66
2022-12-31T04:31:40.754Z,77.45
2022-12-31T04:36:42.420Z,76.96
2022-12-31T04:41:44.088Z,76.40
2022-12-31T04:46:45.734Z,76.33
2022-12-31T04:51:47.579Z,76.05
2022-12-31T04:56:49.298Z,75.88
2022-12-31T05:01:51.046Z,75.91
2022-12-31T05:06:52.861Z,76.13
2022-12-31T05:11:54.542Z,75.85
2022-12-31T05:16:56.930Z,75.60
2022-12-31T05:22:17.256Z,75.46
2022-12-31T05:27:18.956Z,75.35
2022-12-31T05:32:20.671Z,75.38
2022-12-31T05:37:22.489Z,75.46
2022-12-31T05:42:24.157Z,75.34
2022-12-31T05:47:25.947Z,74.83
2022-12-31T05:52:27.609Z,74.84
2022-12-31T05:57:29.300Z,74.76
2022-12-31T06:02:30.936Z,75.04
2022-12-31T06:07:32.683Z,75.14
2022-12-31T06:12:34.480Z,74.92
2022-12-31T06:17:36.185Z,74.72
2022-12-31T06:22:37.897Z,74.65
2022-12-31T06:27:39.601Z,74.32
2022-12-31T06:32:42.089Z,74.29
2022-12-31T06:37:43.750Z,74.32
2022-12-31T06:42:45.547Z,74.30
2022-12-31T06:47:47.270Z,73.95
2022-12-31T06:52:51.150Z,73.54
2022-12-31T06:57:53.400Z,73.29
2022-12-31T07:03:09.830Z,72.61
2022-12-31T07:08:24.532Z,72.16
2022-12-31T07:13:32.031Z,71.81
2022-12-31T07:18:54.063Z,71.58
2022-12-31T07:23:56.433Z,71.78
2022-12-31T07:29:08.320Z,71.59
2022-12-31T07:34:30.605Z,71.64
2022-12-31T07:39:46.718Z,71.63
2022-12-31T07:45:10.101Z,71.81
2022-12-31T07:50:17.632Z,71.82
2022-12-31T07:55:19.939Z,71.68
2022-12-31T08:00:21.988Z,71.79
2022-12-31T08:05:39.111Z,71.65
2022-12-31T08:10:49.759Z,71.18
2022-12-31T08:15:51.693Z,70.79
2022-12-31T08:21:22.251Z,70.58
2022-12-31T08:26:33.282Z,70.42
2022-12-31T08:31:51.035Z,69.81
2022-12-31T08:37:04.607Z,69.73
2022-12-31T08:42:18.878Z,69.56
2022-12-31T08:47:26.367Z,69.05
2022-12-31T08:52:28.361Z,69.20
2022-12-31T08:57:47.471Z,68.67
2022-12-31T09:03:04.415Z,67.97
2022-12-31T09:08:16.928Z,67.33
2022-12-31T09:13:41.827Z,66.37
2022-12-31T09:18:43.557Z,65.39
2022-12-31T09:23:45.660Z,64.24
2022-12-31T09:28:53.900Z,65.09
2022-12-31T09:34:12.542Z,65.42
2022-12-31T09:39:24.925Z,65.27
2022-12-31T09:44:46.912Z,65.05
2022-12-31T09:50:31.717Z,65.02
2022-12-31T09:55:39.823Z,65.11
2022-12-31T10:01:03.885Z,64.84
2022-12-31T10:06:20.036Z,65.03
2022-12-31T10:11:39.322Z,65.33
2022-12-31T10:17:06.632Z,65.22
2022-12-31T10:22:34.847Z,65.29
2022-12-31T10:27:39.469Z,65.42
2022-12-31T10:33:08.493Z,65.60
2022-12-31T10:38:30.959Z,65.43
2022-12-31T10:43:48.000Z,65.25
2022-12-31T10:48:59.368Z,65.37
2022-12-31T10:54:23.054Z,65.00
2022-12-31T10:59:45.583Z,65.05
2022-12-31T11:05:25.620Z,64.58
2022-12-31T11:10:54.440Z,64.78
2022-12-31T11:16:12.570Z,64.80
2022-12-31T11:21:28.313Z,64.81
2022-12-31T11:27:02.539Z,64.80
2022-12-31T11:32:10.290Z,63.90
2022-12-31T11:37:20.900Z,63.87
2022-12-31T11:42:40.775Z,63.88
2022-12-31T11:48:30.111Z,63.34
2022-12-31T11:53:47.795Z,63.53
2022-12-31T11:58:52.179Z,62.76
2022-12-31T12:03:54.003Z,63.22
2022-12-31T12:08:59.569Z,62.33
2022-12-31T12:14:01.341Z,62.41
2022-12-31T12:19:03.023Z,61.38
2022-12-31T12:24:27.824Z,61.77
2022-12-31T12:29:34.391Z,62.20
2022-12-31T12:34:45.872Z,61.91
2022-12-31T12:40:00.917Z,62.20
2022-12-31T12:45:18.848Z,62.37
2022-12-31T12:50:25.295Z,62.54
2022-12-31T12:55:38.840Z,62.71
2022-12-31T13:00:59.050Z,62.89
2022-12-31T13:06:36.886Z,62.60
2022-12-31T13:11:50.664Z,62.57
2022-12-31T13:16:55.103Z,62.82
2022-12-31T13:22:22.790Z,62.88
2022-12-31T13:27:38.055Z,62.89
2022-12-31T13:32:46.092Z,63.32
2022-12-31T13:37:49.842Z,63.25
2022-12-31T13:43:02.929Z,63.34
2022-12-31T13:48:16.213Z,63.45
2022-12-31T13:53:27.933Z,63.59
2022-12-31T13:58:37.051Z,64.03
2022-12-31T14:04:04.688Z,64.82
2022-12-31T14:09:06.691Z,65.60
2022-12-31T14:14:15.771Z,66.41
2022-12-31T14:19:55.273Z,67.01
2022-12-31T14:24:59.368Z,67.82
2022-12-31T14:30:15.476Z,68.90
2022-12-31T14:35:38.573Z,69.99
2022-12-31T14:40:58.930Z,70.77
2022-12-31T14:46:10.456Z,70.86
2022-12-31T14:51:13.346Z,70.72
2022-12-31T14:56:51.287Z,70.75
2022-12-31T15:01:54.074Z,70.64
2022-12-31T15:07:06.860Z,69.99
2022-12-31T15:12:40.132Z,70.41
2022-12-31T15:18:00.398Z,70.97
2022-12-31T15:23:02.294Z,70.78
2022-12-31T15:28:07.872Z,71.10
2022-12-31T15:33:19.988Z,71.71
2022-12-31T15:38:51.281Z,72.61
2022-12-31T15:44:02.183Z,73.67
2022-12-31T15:49:15.682Z,74.52
2022-12-31T15:54:25.098Z,75.30
2022-12-31T15:59:26.964Z,76.49
2022-12-31T16:04:32.578Z,77.12
2022-12-31T16:09:35.980Z,78.16
2022-12-31T16:14:43.595Z,78.71
2022-12-31T16:19:46.363Z,79.26
2022-12-31T16:25:28.922Z,79.68
2022-12-31T16:30:35.947Z,79.42
2022-12-31T16:35:38.051Z,79.69
2022-12-31T16:40:42.114Z,79.57
2022-12-31T16:45:44.359Z,79.27
2022-12-31T16:50:53.537Z,79.00
2022-12-31T16:56:00.315Z,79.08
2022-12-31T17:01:12.197Z,79.45
2022-12-31T17:06:16.971Z,79.90
2022-12-31T17:11:31.561Z,80.12
2022-12-31T17:16:38.454Z,79.92
2022-12-31T17:21:47.772Z,79.62
2022-12-31T17:26:51.695Z,78.89
2022-12-31T17:32:28.059Z,78.16
2022-12-31T17:37:30.935Z,77.89
2022-12-31T17:42:37.371Z,77.15
2022-12-31T17:47:41.566Z,76.90
2022-12-31T17:52:43.219Z,77.00
2022-12-31T17:57:53.917Z,76.74
2022-12-31T18:02:55.692Z,76.44
2022-12-31T18:07:57.615Z,75.96
2022-12-31T18:13:01.465Z,75.76
2022-12-31T18:18:18.166Z,75.31
2022-12-31T18:23:41.372Z,75.04
2022-12-31T18:45:32.910Z,72.67
2022-12-31T18:50:35.207Z,72.95
2022-12-31T18:55:41.822Z,73.05
2022-12-31T19:00:43.975Z,73.24
2022-12-31T19:05:49.588Z,73.43
2022-12-31T19:10:52.537Z,73.66
2022-12-31T19:15:55.533Z,74.86
2022-12-31T19:20:57.318Z,76.24
2022-12-31T19:25:59.029Z,76.46
2022-12-31T19:31:01.071Z,76.47
2022-12-31T19:36:03.185Z,77.18
2022-12-31T19:41:05.062Z,78.18
2022-12-31T19:46:06.910Z,79.35
2022-12-31T19:51:11.378Z,79.85
2022-12-31T19:56:15.209Z,79.68
2022-12-31T20:01:23.695Z,79.81
2022-12-31T20:06:25.420Z,80.53
2022-12-31T20:11:27.433Z,80.97
2022-12-31T20:16:33.627Z,80.82
2022-12-31T20:21:36.266Z,80.92
2022-12-31T20:26:38.041Z,80.38
2022-12-31T20:31:39.889Z,80.46
2022-12-31T20:36:41.708Z,80.24
2022-12-31T20:41:43.358Z,80.43
2022-12-31T20:46:45.188Z,80.62
2022-12-31T20:51:51.967Z,80.91
2022-12-31T20:56:53.988Z,81.21
2022-12-31T21:02:20.661Z,81.17
2022-12-31T21:07:17.624Z,80.80
2022-12-31T21:12:38.321Z,80.97
2022-12-31T21:17:40.061Z,81.09
2022-12-31T21:22:41.888Z,81.49
2022-12-31T21:27:43.574Z,81.63
2022-12-31T21:32:45.286Z,82.01
2022-12-31T21:37:58.194Z,82.11
2022-12-31T21:43:02.127Z,82.58
2022-12-31T21:48:20.429Z,82.76
2022-12-31T21:53:28.073Z,82.98
2022-12-31T21:58:37.450Z,83.42
2022-12-31T22:03:55.376Z,83.90
2022-12-31T22:08:59.259Z,84.35
2022-12-31T22:14:00.942Z,84.35
2022-12-31T22:19:02.871Z,84.16
2022-12-31T22:24:05.335Z,83.98
2022-12-31T22:29:07.003Z,84.56
2022-12-31T22:34:08.769Z,84.26
2022-12-31T22:39:43.391Z,83.78
2022-12-31T22:44:37.287Z,83.85
2022-12-31T22:49:38.983Z,83.95
2022-12-31T22:54:40.665Z,83.94
2022-12-31T22:59:42.396Z,83.82
2022-12-31T23:04:44.039Z,83.58
2022-12-31T23:10:04.635Z,83.71
2022-12-31T23:15:25.607Z,84.18
2022-12-31T23:20:46.115Z,84.46
2022-12-31T23:25:51.874Z,84.69
2022-12-31T23:30:53.819Z,84.98
2022-12-31T23:36:04.134Z,84.77
2022-12-31T23:41:19.339Z,85.43
2022-12-31T23:46:21.746Z,85.71
2022-12-31T23:51:23.499Z,86.05
2022-12-31T23:56:25.079Z,86.24
